Pagrindinis puslapis
METAR-TAF:

METAR-TAF

Oro uostai :

Lima, Ohajas, Jungtinės Amerikos Valstijos

platuma: 40-42-29N, ilguma: 084-01-17W, Aukštis: 297 m

Dabartinis oras

Ataskaita buvo paskelbta 51 minutes, ne 11:53 UTC
Vėjas 10 kt iš Pietų
Temperatūra -1°C
Drėgmė 80%
Slėgis 1018 hPa
Matomumas: 16.1 km
Giedras dangus

METAR: KAOH 131153Z AUTO 17010KT 10SM CLR M01/M04 A3006 RMK AO2 SLP190 T10111044 10006 21011 56013

Laikas: 07:44 (12:44 UTC)


TAF: trūkstamas

Orai ataskaitas ir orų prognozės (METAR, TAF).

turimą stotys yra geltonos ir raudonos taškus žemėlapyje.

Perkelti pele per norėdami pamatyti stoties vardą.

Tada spustelėkite, norėdami matyti oro stebėjimo ir prognozės.

Norėdami pakeisti žemėlapį: spustelėkite ant žalios mygtukų su juodo kryžiaus žemyn,; žalią mygtuką su brūkšneliu, jei norite nutolinti; arba žalių rodyklių gretimoms žemėlapius.


METAR-TAF: